createdAt,value
2023-05-04T00:00:37.340Z,227.27
2023-05-04T00:01:37.361Z,227.73
2023-05-04T00:02:37.469Z,226.77
2023-05-04T00:03:37.563Z,226.83
2023-05-04T00:04:37.401Z,226.10
2023-05-04T00:05:37.433Z,227.53
2023-05-04T00:06:37.456Z,228.12
2023-05-04T00:07:37.463Z,226.25
2023-05-04T00:08:37.469Z,225.99
2023-05-04T00:09:37.466Z,226.11
2023-05-04T00:10:37.434Z,226.22
2023-05-04T00:11:37.435Z,226.38
2023-05-04T00:12:37.429Z,227.27
2023-05-04T00:13:37.392Z,227.52
2023-05-04T00:14:37.459Z,227.38
2023-05-04T00:15:37.338Z,227.30
2023-05-04T00:16:37.403Z,226.79
2023-05-04T00:17:37.341Z,227.21
2023-05-04T00:18:37.283Z,226.44
2023-05-04T00:19:37.284Z,226.48
2023-05-04T00:20:37.243Z,226.72
2023-05-04T00:21:37.249Z,226.44
2023-05-04T00:22:37.228Z,226.66
2023-05-04T00:23:37.192Z,226.64
2023-05-04T00:24:37.184Z,225.61
2023-05-04T00:25:37.171Z,225.66
2023-05-04T00:26:37.145Z,225.14
2023-05-04T00:27:37.144Z,225.82
2023-05-04T00:28:37.127Z,225.06
2023-05-04T00:29:37.120Z,225.82
2023-05-04T00:30:37.113Z,224.80
2023-05-04T00:31:37.135Z,224.81
2023-05-04T00:32:37.124Z,226.13
2023-05-04T00:33:37.064Z,224.88
2023-05-04T00:34:37.081Z,225.05
2023-05-04T00:35:37.111Z,225.13
2023-05-04T00:36:37.142Z,225.07
2023-05-04T00:37:37.199Z,224.22
2023-05-04T00:38:37.191Z,225.53
2023-05-04T00:39:37.234Z,224.67
2023-05-04T00:40:37.368Z,224.39
2023-05-04T00:41:37.269Z,224.24
2023-05-04T00:42:37.299Z,224.07
2023-05-04T00:43:37.310Z,224.29
2023-05-04T00:44:37.351Z,224.34
2023-05-04T00:45:37.379Z,224.56
2023-05-04T00:46:37.460Z,224.59
2023-05-04T00:47:37.479Z,225.16
2023-05-04T00:48:37.466Z,224.83
2023-05-04T00:49:37.467Z,223.57
2023-05-04T00:50:37.470Z,223.63
2023-05-04T00:51:37.484Z,223.78
2023-05-04T00:52:37.434Z,223.65
2023-05-04T00:53:37.438Z,223.59
2023-05-04T00:54:37.398Z,223.72
2023-05-04T00:55:37.385Z,223.06
2023-05-04T00:56:37.395Z,223.57
2023-05-04T00:57:37.366Z,223.67
2023-05-04T00:58:37.354Z,223.11
2023-05-04T00:59:37.330Z,223.35
2023-05-04T01:00:37.356Z,223.63
2023-05-04T01:01:37.492Z,222.93
2023-05-04T01:02:37.299Z,223.19
2023-05-04T01:03:37.281Z,222.13
2023-05-04T01:04:37.239Z,222.45
2023-05-04T01:05:37.257Z,222.72
2023-05-04T01:06:37.316Z,223.58
2023-05-04T01:07:37.307Z,223.21
2023-05-04T01:08:37.330Z,222.45
2023-05-04T01:09:37.371Z,223.20
2023-05-04T01:10:37.398Z,222.43
2023-05-04T01:11:37.432Z,222.39
2023-05-04T01:12:37.469Z,222.83
2023-05-04T01:13:37.462Z,221.76
2023-05-04T01:14:37.497Z,222.97
2023-05-04T01:15:37.527Z,221.86
2023-05-04T01:16:37.733Z,221.80
2023-05-04T01:17:37.691Z,222.09
2023-05-04T01:18:37.643Z,222.01
2023-05-04T01:19:37.598Z,222.09
2023-05-04T01:20:37.586Z,222.18
2023-05-04T01:21:37.554Z,222.27
2023-05-04T01:22:37.546Z,222.32
2023-05-04T01:23:37.530Z,222.10
2023-05-04T01:24:37.508Z,222.16
2023-05-04T01:25:37.499Z,222.30
2023-05-04T01:26:37.502Z,222.87
2023-05-04T01:27:37.458Z,221.76
2023-05-04T01:28:37.457Z,222.38
2023-05-04T01:29:37.414Z,220.87
2023-05-04T01:30:37.420Z,221.51
2023-05-04T01:31:37.403Z,221.46
2023-05-04T01:32:37.435Z,222.82
2023-05-04T01:33:37.352Z,222.14
2023-05-04T01:34:37.344Z,221.65
2023-05-04T01:35:37.369Z,221.32
2023-05-04T01:36:37.332Z,221.53
2023-05-04T01:37:37.361Z,219.90
2023-05-04T01:38:37.369Z,221.90
2023-05-04T01:39:37.404Z,221.01
2023-05-04T01:40:37.440Z,220.43
2023-05-04T01:41:37.464Z,219.81
2023-05-04T01:42:37.500Z,221.49
2023-05-04T01:43:37.514Z,219.82
2023-05-04T01:44:37.558Z,220.69
2023-05-04T01:45:37.572Z,221.65
2023-05-04T01:46:37.797Z,220.47
2023-05-04T01:47:37.700Z,220.37
2023-05-04T01:48:37.649Z,220.05
2023-05-04T01:49:37.691Z,220.67
2023-05-04T01:50:37.710Z,219.97
2023-05-04T01:51:37.756Z,220.74
2023-05-04T01:52:37.768Z,218.76
2023-05-04T01:53:37.802Z,220.48
2023-05-04T01:54:37.820Z,220.21
2023-05-04T01:55:37.876Z,218.84
2023-05-04T01:56:37.890Z,219.25
2023-05-04T01:57:37.924Z,220.44
2023-05-04T01:58:37.944Z,218.49
2023-05-04T01:59:37.977Z,219.92
2023-05-04T02:00:38.013Z,219.11
2023-05-04T02:01:38.009Z,219.25
2023-05-04T02:02:38.030Z,219.30
2023-05-04T02:03:38.070Z,219.38
2023-05-04T02:04:37.957Z,219.21
2023-05-04T02:05:37.907Z,219.43
2023-05-04T02:06:37.905Z,218.18
2023-05-04T02:07:37.868Z,221.20
2023-05-04T02:08:37.850Z,218.98
2023-05-04T02:09:37.861Z,218.94
2023-05-04T02:10:37.818Z,218.70
2023-05-04T02:11:37.796Z,218.74
2023-05-04T02:12:37.835Z,218.18
2023-05-04T02:13:37.790Z,219.48
2023-05-04T02:14:37.838Z,218.93
2023-05-04T02:15:37.856Z,219.36
2023-05-04T02:16:38.035Z,218.33
2023-05-04T02:17:37.940Z,218.62
2023-05-04T02:18:37.949Z,218.37
2023-05-04T02:19:37.989Z,219.06
2023-05-04T02:20:38.005Z,217.95
2023-05-04T02:21:38.046Z,217.61
2023-05-04T02:22:38.091Z,217.11
2023-05-04T02:23:38.098Z,216.75
2023-05-04T02:24:38.129Z,217.59
2023-05-04T02:25:38.141Z,217.42
2023-05-04T02:26:38.185Z,217.66
2023-05-04T02:27:38.232Z,218.53
2023-05-04T02:28:38.270Z,217.84
2023-05-04T02:29:38.286Z,218.89
2023-05-04T02:30:38.318Z,218.07
2023-05-04T02:31:38.388Z,216.89
2023-05-04T02:32:38.493Z,216.78
2023-05-04T02:33:38.424Z,216.90
2023-05-04T02:34:38.454Z,218.20
2023-05-04T02:35:38.487Z,217.56
2023-05-04T02:36:38.565Z,216.53
2023-05-04T02:37:38.571Z,217.31
2023-05-04T02:38:38.601Z,217.62
2023-05-04T02:39:38.619Z,216.30
2023-05-04T02:40:38.636Z,215.40
2023-05-04T02:41:38.687Z,216.08
2023-05-04T02:42:38.704Z,216.24
2023-05-04T02:43:38.749Z,215.91
2023-05-04T02:44:38.775Z,216.39
2023-05-04T02:45:38.893Z,215.28
2023-05-04T02:46:38.830Z,216.35
2023-05-04T02:47:38.874Z,212.82
2023-05-04T02:48:38.911Z,212.21
2023-05-04T02:49:38.952Z,210.41
2023-05-04T02:50:38.999Z,206.39
2023-05-04T02:51:39.037Z,199.63
2023-05-04T02:52:39.102Z,197.10
2023-05-04T02:53:39.129Z,194.80
2023-05-04T02:54:39.158Z,189.35
2023-05-04T02:55:39.199Z,183.88
2023-05-04T02:56:39.244Z,180.76
2023-05-04T02:57:39.303Z,175.65
2023-05-04T02:58:39.287Z,170.48
2023-05-04T02:59:39.259Z,166.72
2023-05-04T03:00:39.300Z,163.86
2023-05-04T03:01:39.336Z,157.98
2023-05-04T03:02:39.379Z,154.38
2023-05-04T03:03:39.296Z,149.58
2023-05-04T03:04:39.358Z,147.76
2023-05-04T03:05:39.305Z,143.14
2023-05-04T03:06:39.330Z,138.81
2023-05-04T03:07:39.369Z,135.80
2023-05-04T03:08:39.374Z,132.69
2023-05-04T03:09:39.395Z,129.34
2023-05-04T03:10:39.413Z,130.55
2023-05-04T03:11:39.434Z,126.20
2023-05-04T03:12:39.487Z,123.87
2023-05-04T03:13:39.472Z,121.97
2023-05-04T03:14:39.500Z,122.23
2023-05-04T03:15:39.522Z,117.51
2023-05-04T03:16:39.656Z,113.66
2023-05-04T03:17:39.593Z,112.97
2023-05-04T03:18:39.611Z,111.74
2023-05-04T03:19:39.655Z,109.89
2023-05-04T03:20:39.702Z,108.78
2023-05-04T03:21:39.714Z,103.55
2023-05-04T03:22:39.742Z,102.52
2023-05-04T03:23:39.728Z,102.09
2023-05-04T03:24:39.748Z,98.15
2023-05-04T03:25:39.728Z,97.35
2023-05-04T03:26:39.731Z,93.56
2023-05-04T03:27:39.710Z,93.57
2023-05-04T03:28:39.707Z,93.43
2023-05-04T03:29:39.722Z,90.57
2023-05-04T03:30:39.702Z,87.61
2023-05-04T03:31:39.729Z,83.17
2023-05-04T03:32:39.738Z,83.28
2023-05-04T03:33:39.704Z,81.43
2023-05-04T03:34:39.699Z,82.23
2023-05-04T03:35:39.688Z,77.95
2023-05-04T03:36:39.698Z,78.45
2023-05-04T03:37:39.699Z,77.93
2023-05-04T03:38:39.702Z,78.69
2023-05-04T03:39:39.700Z,81.70
2023-05-04T03:40:39.710Z,81.37
2023-05-04T03:41:39.711Z,81.52
2023-05-04T03:42:39.713Z,80.70
2023-05-04T03:43:39.767Z,82.23
2023-05-04T03:44:39.819Z,83.78
2023-05-04T03:45:39.975Z,79.04
2023-05-04T03:46:39.885Z,80.96
2023-05-04T03:47:40.059Z,77.66
2023-05-04T03:48:39.978Z,79.92
2023-05-04T03:49:40.048Z,76.92
2023-05-04T03:50:40.093Z,78.06
2023-05-04T03:51:40.177Z,69.63
2023-05-04T03:52:40.230Z,74.41
2023-05-04T03:53:41.382Z,73.35
2023-05-04T03:54:40.348Z,72.24
2023-05-04T03:55:40.406Z,69.24
2023-05-04T03:56:40.463Z,74.62
2023-05-04T03:57:40.518Z,72.86
2023-05-04T03:58:40.568Z,71.46
2023-05-04T03:59:40.627Z,71.40
2023-05-04T04:00:40.703Z,71.03
2023-05-04T04:01:40.800Z,71.41
2023-05-04T04:02:40.954Z,73.03
2023-05-04T04:03:41.054Z,70.96
2023-05-04T04:04:41.087Z,74.97
2023-05-04T04:05:41.025Z,73.86
2023-05-04T04:06:43.320Z,74.98
2023-05-04T04:07:41.188Z,76.90
2023-05-04T04:08:41.225Z,75.84
2023-05-04T04:09:41.256Z,76.54
2023-05-04T04:10:41.306Z,73.92
2023-05-04T04:11:41.315Z,76.82
2023-05-04T04:12:41.423Z,75.20
2023-05-04T04:13:41.372Z,75.58
2023-05-04T04:14:41.442Z,75.02
2023-05-04T04:15:42.763Z,74.17
2023-05-04T04:16:41.620Z,72.78
2023-05-04T04:17:41.678Z,73.74
2023-05-04T04:18:41.635Z,70.84
2023-05-04T04:19:41.686Z,73.92
2023-05-04T04:20:41.711Z,73.29
2023-05-04T04:21:41.745Z,70.55
2023-05-04T04:22:41.811Z,72.35
2023-05-04T04:23:41.808Z,71.90
2023-05-04T04:24:41.828Z,69.56
2023-05-04T04:25:44.061Z,71.24
2023-05-04T04:26:41.830Z,71.39
2023-05-04T04:27:41.826Z,69.13
2023-05-04T04:28:41.828Z,67.65
2023-05-04T04:29:41.842Z,69.64
2023-05-04T04:30:41.827Z,69.71
2023-05-04T04:31:41.845Z,69.82
2023-05-04T04:32:41.851Z,70.07
2023-05-04T04:33:41.833Z,67.99
2023-05-04T04:34:41.848Z,69.96
2023-05-04T04:35:41.849Z,70.31
2023-05-04T04:36:41.857Z,68.96
2023-05-04T04:37:41.867Z,68.04
2023-05-04T04:38:41.855Z,69.10
2023-05-04T04:39:41.900Z,68.99
2023-05-04T04:40:41.869Z,68.36
2023-05-04T04:41:41.888Z,68.88
2023-05-04T04:42:41.899Z,68.32
2023-05-04T04:43:41.881Z,68.01
2023-05-04T04:44:41.905Z,67.32
2023-05-04T04:45:41.897Z,66.75
2023-05-04T04:46:41.967Z,65.68
2023-05-04T04:47:41.961Z,66.22
2023-05-04T04:48:41.912Z,65.74
2023-05-04T04:49:41.908Z,65.32
2023-05-04T04:50:41.905Z,65.37
2023-05-04T04:51:41.937Z,65.36
2023-05-04T04:52:41.932Z,65.66
2023-05-04T04:53:41.908Z,64.10
2023-05-04T04:54:41.909Z,64.69
2023-05-04T04:55:41.922Z,63.79
2023-05-04T04:56:41.908Z,64.83
2023-05-04T04:57:41.923Z,64.70
2023-05-04T04:58:41.909Z,65.36
2023-05-04T04:59:41.899Z,65.40
2023-05-04T05:00:41.962Z,65.39
2023-05-04T05:01:41.910Z,65.50
2023-05-04T05:02:41.962Z,65.42
2023-05-04T05:03:41.912Z,65.44
2023-05-04T05:04:41.976Z,65.51
2023-05-04T05:05:41.920Z,64.67
2023-05-04T05:06:41.907Z,65.39
2023-05-04T05:07:41.915Z,64.67
2023-05-04T05:08:41.907Z,66.00
2023-05-04T05:09:41.914Z,64.30
2023-05-04T05:10:43.835Z,65.08
2023-05-04T05:11:41.914Z,65.86
2023-05-04T05:12:41.975Z,65.22
2023-05-04T05:13:41.928Z,66.48
2023-05-04T05:14:41.921Z,65.82
2023-05-04T05:15:41.934Z,66.11
2023-05-04T05:16:41.966Z,66.57
2023-05-04T05:17:42.030Z,66.35
2023-05-04T05:18:41.952Z,66.12
2023-05-04T05:19:42.399Z,67.43
2023-05-04T05:20:41.951Z,67.50
2023-05-04T05:21:41.967Z,67.57
2023-05-04T05:22:41.974Z,67.99
2023-05-04T05:23:41.954Z,68.70
2023-05-04T05:24:41.943Z,67.52
2023-05-04T05:25:41.951Z,67.93
2023-05-04T05:26:41.937Z,68.15
2023-05-04T05:27:41.953Z,69.53
2023-05-04T05:28:41.953Z,69.28
2023-05-04T05:29:41.964Z,69.90
2023-05-04T05:30:41.974Z,69.43
2023-05-04T05:31:41.937Z,70.27
2023-05-04T05:32:41.958Z,70.71
2023-05-04T05:33:41.946Z,70.01
2023-05-04T05:34:41.935Z,71.23
2023-05-04T05:35:41.971Z,72.00
2023-05-04T05:36:41.932Z,73.84
2023-05-04T05:37:41.944Z,73.93
2023-05-04T05:38:41.937Z,74.03
2023-05-04T05:39:41.937Z,75.31
2023-05-04T05:40:41.926Z,77.81
2023-05-04T05:41:41.948Z,74.31
2023-05-04T05:42:41.931Z,74.44
2023-05-04T05:43:41.928Z,76.94
2023-05-04T05:44:41.963Z,81.35
2023-05-04T05:45:41.924Z,91.81
2023-05-04T05:46:42.025Z,105.46
2023-05-04T05:47:41.977Z,107.61
2023-05-04T05:48:41.972Z,107.45
2023-05-04T05:49:44.174Z,117.05
2023-05-04T05:50:41.890Z,117.08
2023-05-04T05:51:41.884Z,117.37
2023-05-04T05:52:41.871Z,113.47
2023-05-04T05:53:41.875Z,113.07
2023-05-04T05:54:41.862Z,109.46
2023-05-04T05:55:41.860Z,107.05
2023-05-04T05:56:41.849Z,107.05
2023-05-04T05:57:41.870Z,107.22
2023-05-04T05:58:41.877Z,107.33
2023-05-04T05:59:41.889Z,109.13
2023-05-04T06:00:41.874Z,112.17
2023-05-04T06:01:41.870Z,115.84
2023-05-04T06:02:41.969Z,118.45
2023-05-04T06:03:41.957Z,118.53
2023-05-04T06:04:41.901Z,119.66
2023-05-04T06:05:41.796Z,121.31
2023-05-04T06:06:43.123Z,124.68
2023-05-04T06:07:41.805Z,129.68
2023-05-04T06:08:41.776Z,132.36
2023-05-04T06:09:41.775Z,134.34
2023-05-04T06:10:41.760Z,134.25
2023-05-04T06:11:41.737Z,136.41
2023-05-04T06:12:41.800Z,136.57
2023-05-04T06:13:41.741Z,137.03
2023-05-04T06:14:41.748Z,138.46
2023-05-04T06:15:41.715Z,139.77
2023-05-04T06:16:41.785Z,142.67
2023-05-04T06:17:41.771Z,143.24
2023-05-04T06:18:41.676Z,144.74
2023-05-04T06:19:41.698Z,145.14
2023-05-04T06:20:41.652Z,146.29
2023-05-04T06:21:41.665Z,147.47
2023-05-04T06:22:41.651Z,148.40
2023-05-04T06:23:41.657Z,149.78
2023-05-04T06:24:41.613Z,151.58
2023-05-04T06:25:41.637Z,152.93
2023-05-04T06:26:41.694Z,155.30
2023-05-04T06:27:41.697Z,157.43
2023-05-04T06:28:41.747Z,157.16
2023-05-04T06:29:41.753Z,160.03
2023-05-04T06:30:41.768Z,159.65
2023-05-04T06:31:41.852Z,159.77
2023-05-04T06:32:41.831Z,161.05
2023-05-04T06:33:41.802Z,162.04
2023-05-04T06:34:41.882Z,165.42
2023-05-04T06:35:41.810Z,165.25
2023-05-04T06:36:41.841Z,167.16
2023-05-04T06:37:41.834Z,167.35
2023-05-04T06:38:41.859Z,167.56
2023-05-04T06:39:41.838Z,167.69
2023-05-04T06:40:41.914Z,168.67
2023-05-04T06:41:41.856Z,168.77
2023-05-04T06:42:41.791Z,169.19
2023-05-04T06:43:41.780Z,169.78
2023-05-04T06:44:41.738Z,168.82
2023-05-04T06:45:41.756Z,169.11
2023-05-04T06:46:41.756Z,169.18
2023-05-04T06:47:41.737Z,168.77
2023-05-04T06:48:41.650Z,168.75
2023-05-04T06:49:41.636Z,169.12
2023-05-04T06:50:41.624Z,167.99
2023-05-04T06:51:41.619Z,168.00
2023-05-04T06:52:41.622Z,167.23
2023-05-04T06:53:41.600Z,164.23
2023-05-04T06:54:41.598Z,161.74
2023-05-04T06:55:41.617Z,160.39
2023-05-04T06:56:41.562Z,157.53
2023-05-04T06:57:41.544Z,152.78
2023-05-04T06:58:41.529Z,152.60
2023-05-04T06:59:41.499Z,156.12
2023-05-04T07:00:41.488Z,152.77
2023-05-04T07:01:41.481Z,149.86
2023-05-04T07:02:41.449Z,151.91
2023-05-04T07:03:41.481Z,152.11
2023-05-04T07:04:41.402Z,152.18
2023-05-04T07:05:41.390Z,150.35
2023-05-04T07:06:41.376Z,147.51
2023-05-04T07:07:41.392Z,145.99
2023-05-04T07:08:41.336Z,141.96
2023-05-04T07:09:41.310Z,136.53
2023-05-04T07:10:41.298Z,136.19
2023-05-04T07:11:41.276Z,136.19
2023-05-04T07:12:41.291Z,136.29
2023-05-04T07:13:41.234Z,136.23
2023-05-04T07:14:41.220Z,135.43
2023-05-04T07:15:41.206Z,131.59
2023-05-04T07:16:41.239Z,132.66
2023-05-04T07:17:41.206Z,133.10
2023-05-04T07:18:41.157Z,131.06
2023-05-04T07:19:41.145Z,131.29
2023-05-04T07:20:41.113Z,141.64
2023-05-04T07:21:41.120Z,141.92
2023-05-04T07:22:41.145Z,144.88
2023-05-04T07:23:41.188Z,145.98
2023-05-04T07:24:41.330Z,146.78
2023-05-04T07:25:41.267Z,141.14
2023-05-04T07:26:41.268Z,142.32
2023-05-04T07:27:41.290Z,136.96
2023-05-04T07:28:41.272Z,137.85
2023-05-04T07:29:41.276Z,139.28
2023-05-04T07:30:41.268Z,137.03
2023-05-04T07:31:41.312Z,135.90
2023-05-04T07:32:41.326Z,137.57
2023-05-04T07:33:41.277Z,137.75
2023-05-04T07:34:45.633Z,138.91
2023-05-04T07:35:41.255Z,138.01
2023-05-04T07:36:43.242Z,138.64
2023-05-04T07:37:41.210Z,140.43
2023-05-04T07:38:41.166Z,144.87
2023-05-04T07:39:41.168Z,154.06
2023-05-04T07:40:41.230Z,150.89
2023-05-04T07:41:41.237Z,150.91
2023-05-04T07:42:41.292Z,113.50
2023-05-04T07:43:41.279Z,49.61
2023-05-04T07:44:41.268Z,6.03
2023-05-04T07:45:41.237Z,0.00
2023-05-04T07:46:41.561Z,0.00
2023-05-04T07:47:41.265Z,0.00
2023-05-04T07:48:41.209Z,0.00
2023-05-04T07:49:41.189Z,0.00
2023-05-04T07:50:41.206Z,0.00
2023-05-04T07:51:41.153Z,0.00
2023-05-04T07:52:41.230Z,0.00
2023-05-04T07:53:41.163Z,0.00
2023-05-04T07:54:41.171Z,0.00
2023-05-04T07:55:41.200Z,0.00
2023-05-04T07:56:41.145Z,0.00
2023-05-04T07:57:41.177Z,0.00
2023-05-04T07:58:41.159Z,0.00
2023-05-04T07:59:41.155Z,0.00
2023-05-04T08:00:41.119Z,0.00
2023-05-04T08:01:43.660Z,0.00
2023-05-04T08:02:41.213Z,0.00
2023-05-04T08:03:41.192Z,0.00
2023-05-04T08:04:41.124Z,0.15
2023-05-04T08:05:41.129Z,5.58
2023-05-04T08:06:41.138Z,13.32
2023-05-04T08:07:41.096Z,17.30
2023-05-04T08:08:41.100Z,22.35
2023-05-04T08:09:41.094Z,26.28
2023-05-04T08:10:41.091Z,24.48
2023-05-04T08:11:41.069Z,23.52
2023-05-04T08:12:41.130Z,24.94
2023-05-04T08:13:41.054Z,26.94
2023-05-04T08:14:41.072Z,27.64
2023-05-04T08:15:41.031Z,24.55
2023-05-04T08:16:41.029Z,23.06
2023-05-04T08:17:41.052Z,15.86
2023-05-04T08:18:41.006Z,11.14
2023-05-04T08:19:40.993Z,4.08
2023-05-04T08:20:40.976Z,4.59
2023-05-04T08:21:40.978Z,2.08
2023-05-04T08:22:41.007Z,11.37
2023-05-04T08:23:40.984Z,10.69
2023-05-04T08:24:40.997Z,10.93
2023-05-04T08:25:40.955Z,12.35
2023-05-04T08:26:42.393Z,14.64
2023-05-04T08:27:40.966Z,19.03
2023-05-04T08:28:40.983Z,25.88
2023-05-04T08:29:40.934Z,23.88
2023-05-04T08:30:40.936Z,28.78
2023-05-04T08:31:40.992Z,27.70
2023-05-04T08:32:40.964Z,24.34
2023-05-04T08:33:40.975Z,21.65
2023-05-04T08:34:40.920Z,17.77
2023-05-04T08:35:40.920Z,15.46
2023-05-04T08:36:40.875Z,21.24
2023-05-04T08:37:40.904Z,24.85
2023-05-04T08:38:40.894Z,23.00
2023-05-04T08:39:42.155Z,18.42
2023-05-04T08:40:40.898Z,17.49
2023-05-04T08:41:40.872Z,12.96
2023-05-04T08:42:40.863Z,15.95
2023-05-04T08:43:40.870Z,12.17
2023-05-04T08:44:42.727Z,13.95
2023-05-04T08:45:40.953Z,22.53
2023-05-04T08:46:40.855Z,27.76
2023-05-04T08:47:40.851Z,25.59
2023-05-04T08:48:40.923Z,25.00
2023-05-04T08:49:40.854Z,25.00
2023-05-04T08:50:40.829Z,29.27
2023-05-04T08:51:40.837Z,30.99
2023-05-04T08:52:40.828Z,16.16
2023-05-04T08:53:40.838Z,16.08
2023-05-04T08:54:40.848Z,12.09
2023-05-04T08:55:40.852Z,16.12
2023-05-04T08:56:40.951Z,23.99
2023-05-04T08:57:40.867Z,28.72
2023-05-04T08:58:40.868Z,26.80
2023-05-04T08:59:40.853Z,29.87
2023-05-04T09:00:40.897Z,31.82
2023-05-04T09:01:40.967Z,36.00
2023-05-04T09:02:40.883Z,39.68
2023-05-04T09:03:41.030Z,48.07
2023-05-04T09:04:40.860Z,54.89
2023-05-04T09:05:40.861Z,56.12
2023-05-04T09:06:40.866Z,57.11
2023-05-04T09:07:40.835Z,56.02
2023-05-04T09:08:40.860Z,52.79
2023-05-04T09:09:40.836Z,52.22
2023-05-04T09:10:40.905Z,52.96
2023-05-04T09:11:40.823Z,52.72
2023-05-04T09:12:40.902Z,54.25
2023-05-04T09:13:40.829Z,54.86
2023-05-04T09:14:40.791Z,57.96
2023-05-04T09:15:40.788Z,55.73
2023-05-04T09:16:40.798Z,59.80
2023-05-04T09:17:50.956Z,59.28
2023-05-04T09:18:41.764Z,59.34
2023-05-04T09:19:40.747Z,60.11
2023-05-04T09:20:40.964Z,61.34
2023-05-04T09:21:40.816Z,65.06
2023-05-04T09:22:40.710Z,70.50
2023-05-04T09:23:40.793Z,59.79
2023-05-04T09:24:40.683Z,62.07
2023-05-04T09:25:40.683Z,65.64
2023-05-04T09:26:40.669Z,59.65
2023-05-04T09:27:40.649Z,60.07
2023-05-04T09:28:40.691Z,53.64
2023-05-04T09:29:40.796Z,50.79
2023-05-04T09:30:40.641Z,44.82
2023-05-04T09:31:40.640Z,43.16
2023-05-04T09:32:40.639Z,41.80
2023-05-04T09:33:40.805Z,41.95
2023-05-04T09:34:40.597Z,37.87
2023-05-04T09:35:40.654Z,36.82
2023-05-04T09:36:40.596Z,33.35
2023-05-04T09:37:40.574Z,27.11
2023-05-04T09:38:40.565Z,28.62
2023-05-04T09:39:40.559Z,40.82
2023-05-04T09:40:40.538Z,40.88
2023-05-04T09:41:40.532Z,41.31
2023-05-04T09:42:40.530Z,42.01
2023-05-04T09:43:40.592Z,39.74
2023-05-04T09:44:40.565Z,37.53
2023-05-04T09:45:40.551Z,33.58
2023-05-04T09:46:40.535Z,28.20
2023-05-04T09:47:40.693Z,33.84
2023-05-04T09:48:40.523Z,34.06
2023-05-04T09:49:40.660Z,34.60
2023-05-04T09:50:40.511Z,35.61
2023-05-04T09:51:40.502Z,32.90
2023-05-04T09:52:40.506Z,27.79
2023-05-04T09:53:40.525Z,26.84
2023-05-04T09:54:40.459Z,30.26
2023-05-04T09:55:40.540Z,33.77
2023-05-04T09:56:40.434Z,33.90
2023-05-04T09:57:40.418Z,29.56
2023-05-04T09:58:40.469Z,34.11
2023-05-04T09:59:40.424Z,30.77
2023-05-04T10:00:40.423Z,28.57
2023-05-04T10:01:41.676Z,29.31
2023-05-04T10:02:40.603Z,28.24
2023-05-04T10:03:40.425Z,27.71
2023-05-04T10:04:40.418Z,23.92
2023-05-04T10:05:40.485Z,24.20
2023-05-04T10:06:40.493Z,24.37
2023-05-04T10:07:41.577Z,25.97
2023-05-04T10:08:40.565Z,35.04
2023-05-04T10:09:40.563Z,37.95
2023-05-04T10:10:40.611Z,40.20
2023-05-04T10:11:40.625Z,38.23
2023-05-04T10:12:40.730Z,38.30
2023-05-04T10:13:40.749Z,31.52
2023-05-04T10:14:40.754Z,31.93
2023-05-04T10:15:40.765Z,28.60
2023-05-04T10:16:40.750Z,27.33
2023-05-04T10:17:40.819Z,26.80
2023-05-04T10:18:40.767Z,25.66
2023-05-04T10:19:40.767Z,26.87
2023-05-04T10:20:40.785Z,25.00
2023-05-04T10:21:40.791Z,28.46
2023-05-04T10:22:40.791Z,28.63
2023-05-04T10:23:40.817Z,30.00
2023-05-04T10:24:40.856Z,31.74
2023-05-04T10:25:40.785Z,35.89
2023-05-04T10:26:40.764Z,37.59
2023-05-04T10:27:40.750Z,38.39
2023-05-04T10:28:40.762Z,35.65
2023-05-04T10:29:40.756Z,36.97
2023-05-04T10:30:40.749Z,41.72
2023-05-04T10:31:40.769Z,41.85
2023-05-04T10:32:40.730Z,43.54
2023-05-04T10:33:40.820Z,48.53
2023-05-04T10:34:40.737Z,54.32
2023-05-04T10:35:40.786Z,63.41
2023-05-04T10:36:40.705Z,61.65
2023-05-04T10:37:40.684Z,56.31
2023-05-04T10:38:40.695Z,53.72
2023-05-04T10:39:40.659Z,52.95
2023-05-04T10:40:40.652Z,55.19
2023-05-04T10:41:40.679Z,47.59
2023-05-04T10:42:40.676Z,46.12
2023-05-04T10:43:40.643Z,41.38
2023-05-04T10:44:40.634Z,38.10
2023-05-04T10:45:40.677Z,30.44
2023-05-04T10:46:40.640Z,29.28
2023-05-04T10:47:40.694Z,27.21
2023-05-04T10:48:40.619Z,25.00
2023-05-04T10:49:40.605Z,20.85
2023-05-04T10:50:40.617Z,18.52
2023-05-04T10:51:49.119Z,20.96
2023-05-04T10:52:41.626Z,21.26
2023-05-04T10:53:40.642Z,26.08
2023-05-04T10:54:40.654Z,31.49
2023-05-04T10:55:40.649Z,40.56
2023-05-04T10:56:40.609Z,26.05
2023-05-04T10:57:40.612Z,30.63
2023-05-04T10:58:40.615Z,37.68
2023-05-04T10:59:40.629Z,49.07
2023-05-04T11:00:40.649Z,68.10
2023-05-04T11:01:40.639Z,76.06
2023-05-04T11:02:40.690Z,87.11
2023-05-04T11:03:40.651Z,94.53
2023-05-04T11:04:40.567Z,100.56
2023-05-04T11:05:40.559Z,106.55
2023-05-04T11:06:40.551Z,109.57
2023-05-04T11:07:40.558Z,109.03
2023-05-04T11:08:40.572Z,107.83
2023-05-04T11:09:40.701Z,108.33
2023-05-04T11:10:40.602Z,102.54
2023-05-04T11:11:40.601Z,104.06
2023-05-04T11:12:40.629Z,100.92
2023-05-04T11:13:40.604Z,99.34
2023-05-04T11:14:40.565Z,99.34
2023-05-04T11:15:40.574Z,90.66
2023-05-04T11:16:40.584Z,90.30
2023-05-04T11:17:40.564Z,91.42
2023-05-04T11:18:40.579Z,89.13
2023-05-04T11:19:40.550Z,94.57
2023-05-04T11:20:40.501Z,89.89
2023-05-04T11:21:40.587Z,98.35
2023-05-04T11:22:40.468Z,99.60
2023-05-04T11:23:40.482Z,92.46
2023-05-04T11:24:40.423Z,89.49
2023-05-04T11:25:40.426Z,90.40
2023-05-04T11:26:40.432Z,90.44
2023-05-04T11:27:40.406Z,91.19
2023-05-04T11:28:40.412Z,94.42
2023-05-04T11:29:40.415Z,102.11
2023-05-04T11:30:40.467Z,116.81
2023-05-04T11:31:40.364Z,123.98
2023-05-04T11:32:40.317Z,129.79
2023-05-04T11:33:40.292Z,134.69
2023-05-04T11:34:40.263Z,138.37
2023-05-04T11:35:40.277Z,143.59
2023-05-04T11:36:40.305Z,149.04
2023-05-04T11:37:40.442Z,153.15
2023-05-04T11:38:40.366Z,155.49
2023-05-04T11:39:40.423Z,158.27
2023-05-04T11:40:40.424Z,162.13
2023-05-04T11:41:40.491Z,164.76
2023-05-04T11:42:40.531Z,168.06
2023-05-04T11:43:40.967Z,170.63
2023-05-04T11:44:40.556Z,172.92
2023-05-04T11:45:40.576Z,174.74
2023-05-04T11:46:40.634Z,177.33
2023-05-04T11:47:40.561Z,177.40
2023-05-04T11:48:40.534Z,177.94
2023-05-04T11:49:40.569Z,179.37
2023-05-04T11:50:40.489Z,182.17
2023-05-04T11:51:40.467Z,186.65
2023-05-04T11:52:40.447Z,188.73
2023-05-04T11:53:40.412Z,188.78
2023-05-04T11:54:40.429Z,190.80
2023-05-04T11:55:40.371Z,192.06
2023-05-04T11:56:40.376Z,193.16
2023-05-04T11:57:40.383Z,195.31
2023-05-04T11:58:40.336Z,196.66
2023-05-04T11:59:40.312Z,196.77
2023-05-04T12:00:40.459Z,199.15
2023-05-04T12:01:40.256Z,199.15
2023-05-04T12:02:40.286Z,199.21
2023-05-04T12:03:52.337Z,199.41
2023-05-04T12:04:41.195Z,199.27
2023-05-04T12:05:40.155Z,199.86
2023-05-04T12:06:40.134Z,200.81
2023-05-04T12:07:40.140Z,203.58
2023-05-04T12:08:40.105Z,199.41
2023-05-04T12:09:40.093Z,200.59
2023-05-04T12:10:40.056Z,202.86
2023-05-04T12:11:40.108Z,206.81
2023-05-04T12:12:40.021Z,212.88
2023-05-04T12:13:39.985Z,214.88
2023-05-04T12:14:39.978Z,217.15
2023-05-04T12:15:39.929Z,218.26
2023-05-04T12:16:40.019Z,219.82
2023-05-04T12:17:39.927Z,221.31
2023-05-04T12:18:39.895Z,222.72
2023-05-04T12:19:39.856Z,224.64
2023-05-04T12:20:39.865Z,226.13
2023-05-04T12:21:39.825Z,227.30
2023-05-04T12:22:39.815Z,228.85
2023-05-04T12:23:39.776Z,230.05
2023-05-04T12:24:39.826Z,231.23
2023-05-04T12:25:50.976Z,232.23
2023-05-04T12:26:40.720Z,232.30
2023-05-04T12:27:39.700Z,232.65
2023-05-04T12:28:39.664Z,233.44
2023-05-04T12:29:39.667Z,235.13
2023-05-04T12:30:39.625Z,238.05
2023-05-04T12:31:39.615Z,238.22
2023-05-04T12:32:39.626Z,239.42
2023-05-04T12:33:39.550Z,240.50
2023-05-04T12:34:39.540Z,241.52
2023-05-04T12:35:39.506Z,242.17
2023-05-04T12:36:39.482Z,243.06
2023-05-04T12:37:39.517Z,243.13
2023-05-04T12:38:39.562Z,244.40
2023-05-04T12:39:39.595Z,245.17
2023-05-04T12:40:39.599Z,245.71